createdAt,value
2022-08-17T00:00:34.532Z,17.90
2022-08-17T00:05:40.606Z,20.50
2022-08-17T00:10:40.490Z,21.10
2022-08-17T00:15:40.072Z,20.80
2022-08-17T00:20:39.353Z,20.80
2022-08-17T00:25:38.369Z,19.30
2022-08-17T00:30:51.068Z,20.40
2022-08-17T00:35:53.404Z,21.10
2022-08-17T00:40:59.054Z,19.30
2022-08-17T00:45:59.742Z,20.30
2022-08-17T00:51:11.325Z,22.10
2022-08-17T00:56:17.147Z,20.30
2022-08-17T01:01:21.368Z,17.30
2022-08-17T01:06:22.983Z,18.40
2022-08-17T01:11:22.461Z,20.50
2022-08-17T01:16:25.589Z,19.40
2022-08-17T01:21:34.806Z,18.00
2022-08-17T01:26:36.067Z,18.20
2022-08-17T01:31:41.705Z,16.40
2022-08-17T01:36:43.030Z,17.60
2022-08-17T01:41:43.705Z,17.30
2022-08-17T01:46:43.519Z,17.90
2022-08-17T01:51:42.835Z,16.90
2022-08-17T01:56:47.101Z,19.60
2022-08-17T02:01:47.134Z,17.50
2022-08-17T02:06:53.102Z,20.20
2022-08-17T02:11:54.218Z,17.20
2022-08-17T02:16:53.127Z,16.50
2022-08-17T02:21:55.285Z,16.90
2022-08-17T02:26:54.213Z,15.70
2022-08-17T02:31:52.827Z,17.50
2022-08-17T02:36:53.491Z,17.70
2022-08-17T02:42:01.192Z,16.90
2022-08-17T02:46:59.878Z,16.30
2022-08-17T02:51:59.474Z,20.60
2022-08-17T02:56:58.317Z,18.00
2022-08-17T03:01:57.448Z,19.60
2022-08-17T03:06:55.984Z,19.80
2022-08-17T03:11:56.223Z,17.70
2022-08-17T03:16:55.165Z,17.50
2022-08-17T03:21:55.413Z,18.80
2022-08-17T03:26:54.142Z,18.50
2022-08-17T03:31:53.727Z,17.70
2022-08-17T03:36:52.185Z,21.70
2022-08-17T03:41:50.903Z,19.50
2022-08-17T03:47:07.161Z,17.50
2022-08-17T03:52:23.669Z,15.70
2022-08-17T03:57:23.156Z,18.00
2022-08-17T04:02:25.625Z,21.50
2022-08-17T04:07:31.811Z,16.70
2022-08-17T04:12:43.599Z,20.30
2022-08-17T04:17:44.300Z,21.10
2022-08-17T04:22:55.837Z,18.20
2022-08-17T04:27:55.228Z,16.20
2022-08-17T04:33:07.235Z,18.90
2022-08-17T04:38:07.546Z,17.80
2022-08-17T04:43:10.487Z,20.30
2022-08-17T04:48:10.500Z,18.00
2022-08-17T04:53:09.380Z,19.30
2022-08-17T04:58:09.270Z,16.20
2022-08-17T05:03:09.307Z,21.50
2022-08-17T05:08:10.145Z,17.10
2022-08-17T05:13:12.507Z,17.70
2022-08-17T05:18:12.723Z,18.00
2022-08-17T05:23:16.161Z,17.70
2022-08-17T05:28:16.157Z,17.60
2022-08-17T05:33:19.146Z,18.60
2022-08-17T05:38:20.218Z,16.60
2022-08-17T05:43:23.655Z,17.00
2022-08-17T05:48:22.444Z,15.60
2022-08-17T05:53:50.461Z,15.00
2022-08-17T05:59:12.149Z,16.20
2022-08-17T06:04:29.661Z,17.80
2022-08-17T06:09:41.278Z,15.20
2022-08-17T06:15:19.704Z,15.80
2022-08-17T06:20:19.939Z,16.80
2022-08-17T06:25:24.212Z,17.00
2022-08-17T06:30:27.984Z,15.40
2022-08-17T06:35:37.957Z,13.80
2022-08-17T06:41:00.865Z,15.90
2022-08-17T06:46:07.239Z,13.90
2022-08-17T06:51:19.803Z,13.70
2022-08-17T06:56:54.669Z,12.40
2022-08-17T07:01:56.888Z,13.80
2022-08-17T07:07:22.219Z,13.80
2022-08-17T07:12:30.013Z,12.30
2022-08-17T07:17:36.988Z,9.40
2022-08-17T07:22:59.632Z,11.50
2022-08-17T07:28:03.880Z,10.10
2022-08-17T07:33:20.448Z,11.40
2022-08-17T07:38:26.896Z,11.60
2022-08-17T07:43:29.733Z,12.60
2022-08-17T07:48:36.427Z,9.60
2022-08-17T07:53:34.814Z,13.00
2022-08-17T07:58:34.190Z,12.00
2022-08-17T08:03:34.186Z,11.90
2022-08-17T08:08:44.339Z,10.40
2022-08-17T08:13:46.202Z,9.50
2022-08-17T08:18:55.663Z,10.60
2022-08-17T08:24:11.093Z,8.90
2022-08-17T08:29:28.255Z,10.60
2022-08-17T08:35:00.735Z,9.30
2022-08-17T08:40:11.750Z,10.60
2022-08-17T08:45:21.698Z,10.90
2022-08-17T08:50:40.388Z,10.50
2022-08-17T08:55:56.308Z,10.90
2022-08-17T09:01:00.130Z,12.40
2022-08-17T09:06:37.729Z,11.60
2022-08-17T09:12:01.952Z,10.80
2022-08-17T09:17:13.810Z,10.00
2022-08-17T09:22:31.605Z,9.60
2022-08-17T09:27:51.734Z,12.70
2022-08-17T09:32:57.914Z,10.60
2022-08-17T09:38:04.970Z,9.80
2022-08-17T09:43:13.547Z,7.90
2022-08-17T09:48:19.122Z,9.50
2022-08-17T09:53:18.117Z,10.00
2022-08-17T09:58:31.810Z,8.10
2022-08-17T10:04:07.320Z,10.10
2022-08-17T10:09:16.198Z,12.30
2022-08-17T10:14:37.537Z,10.60
2022-08-17T10:19:53.402Z,10.70
2022-08-17T10:25:23.459Z,10.00
2022-08-17T10:30:29.180Z,10.50
2022-08-17T10:35:42.695Z,11.80
2022-08-17T10:40:55.442Z,10.30
2022-08-17T10:46:09.450Z,10.10
2022-08-17T10:51:42.431Z,8.70
2022-08-17T10:56:53.481Z,9.50
2022-08-17T11:02:17.003Z,9.40
2022-08-17T11:07:34.939Z,9.90
2022-08-17T11:13:02.530Z,10.60
2022-08-17T11:18:38.989Z,8.40
2022-08-17T11:24:22.174Z,9.90
2022-08-17T11:29:31.470Z,8.10
2022-08-17T11:34:33.105Z,13.10
2022-08-17T11:40:08.254Z,10.60
2022-08-17T11:45:34.625Z,9.20
2022-08-17T11:51:09.450Z,11.90
2022-08-17T11:56:13.505Z,11.00
2022-08-17T12:01:34.873Z,8.20
2022-08-17T12:06:46.389Z,11.00
2022-08-17T12:12:04.644Z,9.60
2022-08-17T12:17:14.325Z,10.40
2022-08-17T12:22:37.974Z,9.30
2022-08-17T12:28:06.719Z,8.70
2022-08-17T12:33:25.430Z,10.30
2022-08-17T12:38:33.214Z,12.10
2022-08-17T12:43:33.913Z,9.50
2022-08-17T12:48:34.807Z,9.70
2022-08-17T12:53:37.061Z,11.10
2022-08-17T12:58:53.630Z,9.50
2022-08-17T13:03:59.989Z,10.70
2022-08-17T13:09:09.543Z,10.10
2022-08-17T13:14:18.502Z,9.40
2022-08-17T13:19:40.007Z,9.80
2022-08-17T13:24:53.320Z,10.10
2022-08-17T13:29:59.748Z,9.60
2022-08-17T13:35:12.051Z,11.20
2022-08-17T13:40:53.377Z,10.00
2022-08-17T13:45:54.809Z,11.70
2022-08-17T13:51:38.391Z,9.60
2022-08-17T13:56:59.805Z,9.10
2022-08-17T14:01:58.935Z,9.60
2022-08-17T14:07:03.173Z,9.40
2022-08-17T14:12:04.558Z,11.70
2022-08-17T14:17:03.839Z,9.70
2022-08-17T14:22:03.633Z,10.30
2022-08-17T14:27:05.718Z,9.90
2022-08-17T14:32:18.424Z,10.40
2022-08-17T14:37:18.197Z,10.20
2022-08-17T14:42:17.674Z,11.90
2022-08-17T14:47:16.897Z,9.20
2022-08-17T14:52:21.927Z,10.90
2022-08-17T14:57:25.893Z,8.90
2022-08-17T15:02:44.130Z,12.40
2022-08-17T15:07:44.548Z,11.50
2022-08-17T15:12:44.491Z,9.60
2022-08-17T15:17:46.068Z,9.20
2022-08-17T15:22:50.054Z,9.00
2022-08-17T15:27:49.714Z,10.20
2022-08-17T15:32:54.100Z,10.80
2022-08-17T15:37:54.222Z,9.40
2022-08-17T15:42:53.217Z,9.20
2022-08-17T15:47:52.711Z,10.90
2022-08-17T15:52:58.178Z,10.90
2022-08-17T15:57:57.353Z,10.10
2022-08-17T16:03:45.049Z,13.30
2022-08-17T16:08:20.864Z,11.20
2022-08-17T16:13:21.326Z,10.70
2022-08-17T16:18:20.651Z,14.00
2022-08-17T16:23:20.822Z,10.40
2022-08-17T16:28:21.960Z,10.30
2022-08-17T16:33:21.694Z,11.70
2022-08-17T16:38:21.192Z,12.00
2022-08-17T16:43:20.645Z,10.40
2022-08-17T16:48:20.173Z,13.20
2022-08-17T16:53:21.986Z,11.20
2022-08-17T16:58:20.431Z,12.20
2022-08-17T17:03:24.350Z,10.90
2022-08-17T17:08:31.646Z,13.20
2022-08-17T17:13:38.996Z,10.30
2022-08-17T17:18:43.754Z,12.20
2022-08-17T17:23:56.034Z,12.20
2022-08-17T17:29:11.673Z,12.20
2022-08-17T17:34:17.358Z,12.00
2022-08-17T17:39:21.549Z,12.90
2022-08-17T17:44:27.519Z,14.20
2022-08-17T17:49:27.526Z,10.90
2022-08-17T17:54:54.340Z,12.00
2022-08-17T18:00:13.443Z,13.30
2022-08-17T18:05:22.683Z,13.00
2022-08-17T18:10:34.009Z,14.30
2022-08-17T18:15:41.451Z,13.60
2022-08-17T18:20:40.943Z,13.40
2022-08-17T18:25:55.678Z,12.60
2022-08-17T18:31:14.809Z,15.00
2022-08-17T18:36:14.877Z,13.40
2022-08-17T18:41:30.520Z,14.30
2022-08-17T18:46:37.651Z,15.40
2022-08-17T18:51:41.864Z,13.20
2022-08-17T18:56:44.884Z,15.40
2022-08-17T19:02:16.063Z,13.40
2022-08-17T19:07:33.676Z,15.80
2022-08-17T19:12:40.474Z,14.10
2022-08-17T19:17:49.282Z,15.60
2022-08-17T19:23:24.243Z,16.60
2022-08-17T19:28:29.846Z,16.70
2022-08-17T19:33:31.437Z,13.50
2022-08-17T19:38:46.564Z,17.80
2022-08-17T19:44:07.227Z,17.40
2022-08-17T19:49:18.167Z,17.30
2022-08-17T19:54:27.392Z,15.10
2022-08-17T19:59:49.601Z,14.30
2022-08-17T20:04:53.920Z,17.20
2022-08-17T20:10:04.271Z,15.00
2022-08-17T20:15:09.993Z,16.40
2022-08-17T20:20:26.879Z,15.10
2022-08-17T20:25:39.616Z,17.90
2022-08-17T20:30:43.879Z,15.80
2022-08-17T20:36:05.063Z,16.80
2022-08-17T20:41:18.212Z,15.30
2022-08-17T20:46:51.633Z,15.80
2022-08-17T20:52:07.825Z,18.80
2022-08-17T20:57:13.979Z,17.20
2022-08-17T21:02:24.726Z,17.40
2022-08-17T21:07:46.108Z,16.00
2022-08-17T21:12:49.370Z,19.90
2022-08-17T21:18:11.092Z,17.40
2022-08-17T21:23:28.246Z,17.10
2022-08-17T21:28:59.881Z,16.40
2022-08-17T21:34:29.715Z,17.00
2022-08-17T21:39:42.307Z,16.90
2022-08-17T21:44:48.229Z,16.70
2022-08-17T21:49:47.390Z,16.80
2022-08-17T21:54:53.266Z,20.90
2022-08-17T21:59:58.108Z,17.60
2022-08-17T22:05:06.905Z,16.90
2022-08-17T22:10:09.200Z,17.10
2022-08-17T22:15:17.741Z,17.90
2022-08-17T22:20:21.884Z,17.40
2022-08-17T22:25:29.904Z,18.70
2022-08-17T22:30:38.491Z,19.70
2022-08-17T22:35:50.244Z,19.20
2022-08-17T22:40:54.928Z,16.50
2022-08-17T22:45:58.324Z,19.10
2022-08-17T22:51:16.014Z,16.70
2022-08-17T22:56:41.266Z,20.20
2022-08-17T23:01:40.768Z,18.10
2022-08-17T23:06:43.009Z,19.40
2022-08-17T23:11:49.943Z,17.70
2022-08-17T23:16:50.389Z,18.70
2022-08-17T23:21:50.610Z,16.00
2022-08-17T23:26:49.531Z,17.70
2022-08-17T23:31:49.493Z,18.60
2022-08-17T23:36:53.380Z,17.10
2022-08-17T23:41:54.123Z,18.40
2022-08-17T23:46:53.802Z,18.40
2022-08-17T23:51:54.968Z,19.40
2022-08-17T23:56:54.459Z,20.30
